sensor_id;sensor_type;location;lat;lon;timestamp;temperature;humidity
32753;DHT22;19121;52.428;10.816;2023-05-02T00:02:09;21.10;41.40
32753;DHT22;19121;52.428;10.816;2023-05-02T00:04:34;21.10;41.30
32753;DHT22;19121;52.428;10.816;2023-05-02T00:07:00;21.20;41.40
32753;DHT22;19121;52.428;10.816;2023-05-02T00:09:25;21.10;41.40
32753;DHT22;19121;52.428;10.816;2023-05-02T00:11:50;21.10;41.40
32753;DHT22;19121;52.428;10.816;2023-05-02T00:14:16;21.10;41.40
32753;DHT22;19121;52.428;10.816;2023-05-02T00:16:41;21.10;41.40
32753;DHT22;19121;52.428;10.816;2023-05-02T00:19:07;21.10;41.40
32753;DHT22;19121;52.428;10.816;2023-05-02T00:21:32;21.10;41.40
32753;DHT22;19121;52.428;10.816;2023-05-02T00:23:58;21.10;41.40
32753;DHT22;19121;52.428;10.816;2023-05-02T00:26:24;21.10;41.40
32753;DHT22;19121;52.428;10.816;2023-05-02T00:28:49;21.10;41.40
32753;DHT22;19121;52.428;10.816;2023-05-02T00:31:15;21.10;41.40
32753;DHT22;19121;52.428;10.816;2023-05-02T00:33:41;21.10;41.50
32753;DHT22;19121;52.428;10.816;2023-05-02T00:36:15;21.10;41.40
32753;DHT22;19121;52.428;10.816;2023-05-02T00:38:41;21.10;41.40
32753;DHT22;19121;52.428;10.816;2023-05-02T00:41:07;21.10;41.40
32753;DHT22;19121;52.428;10.816;2023-05-02T00:43:32;21.10;41.40
32753;DHT22;19121;52.428;10.816;2023-05-02T00:45:57;21.10;41.40
32753;DHT22;19121;52.428;10.816;2023-05-02T00:48:23;21.10;41.50
32753;DHT22;19121;52.428;10.816;2023-05-02T00:50:49;21.10;41.50
32753;DHT22;19121;52.428;10.816;2023-05-02T00:53:14;21.00;41.40
32753;DHT22;19121;52.428;10.816;2023-05-02T00:55:40;21.10;41.40
32753;DHT22;19121;52.428;10.816;2023-05-02T00:58:07;21.10;41.40
32753;DHT22;19121;52.428;10.816;2023-05-02T01:00:40;21.00;41.40
32753;DHT22;19121;52.428;10.816;2023-05-02T01:06:06;21.10;41.40
32753;DHT22;19121;52.428;10.816;2023-05-02T01:08:38;21.10;41.50
32753;DHT22;19121;52.428;10.816;2023-05-02T01:11:06;21.10;41.40
32753;DHT22;19121;52.428;10.816;2023-05-02T01:13:35;21.10;41.40
32753;DHT22;19121;52.428;10.816;2023-05-02T01:16:02;21.00;41.40
32753;DHT22;19121;52.428;10.816;2023-05-02T01:18:33;21.00;41.40
32753;DHT22;19121;52.428;10.816;2023-05-02T01:21:00;21.00;41.40
32753;DHT22;19121;52.428;10.816;2023-05-02T01:26:08;21.00;41.40
32753;DHT22;19121;52.428;10.816;2023-05-02T01:28:54;21.00;41.40
32753;DHT22;19121;52.428;10.816;2023-05-02T01:31:22;21.00;41.40
32753;DHT22;19121;52.428;10.816;2023-05-02T01:33:47;21.00;41.40
32753;DHT22;19121;52.428;10.816;2023-05-02T01:36:13;21.00;41.40
32753;DHT22;19121;52.428;10.816;2023-05-02T01:38:41;21.00;41.40
32753;DHT22;19121;52.428;10.816;2023-05-02T01:41:06;21.00;41.40
32753;DHT22;19121;52.428;10.816;2023-05-02T01:43:33;21.00;41.50
32753;DHT22;19121;52.428;10.816;2023-05-02T01:45:59;21.00;41.40
32753;DHT22;19121;52.428;10.816;2023-05-02T01:48:24;21.00;41.50
32753;DHT22;19121;52.428;10.816;2023-05-02T01:50:52;21.00;41.40
32753;DHT22;19121;52.428;10.816;2023-05-02T01:53:19;21.00;41.40
32753;DHT22;19121;52.428;10.816;2023-05-02T01:55:46;21.00;41.50
32753;DHT22;19121;52.428;10.816;2023-05-02T01:58:13;20.90;41.50
32753;DHT22;19121;52.428;10.816;2023-05-02T02:00:41;20.90;41.40
32753;DHT22;19121;52.428;10.816;2023-05-02T02:03:09;21.00;41.50
32753;DHT22;19121;52.428;10.816;2023-05-02T02:05:35;20.90;41.40
32753;DHT22;19121;52.428;10.816;2023-05-02T02:08:01;20.90;41.50
32753;DHT22;19121;52.428;10.816;2023-05-02T02:10:28;20.90;41.50
32753;DHT22;19121;52.428;10.816;2023-05-02T02:12:58;20.90;41.40
32753;DHT22;19121;52.428;10.816;2023-05-02T02:15:26;20.90;41.40
32753;DHT22;19121;52.428;10.816;2023-05-02T02:18:13;20.90;41.40
32753;DHT22;19121;52.428;10.816;2023-05-02T02:20:37;20.90;41.50
32753;DHT22;19121;52.428;10.816;2023-05-02T02:23:06;20.90;41.50
32753;DHT22;19121;52.428;10.816;2023-05-02T02:25:33;20.90;41.50
32753;DHT22;19121;52.428;10.816;2023-05-02T02:27:58;20.90;41.50
32753;DHT22;19121;52.428;10.816;2023-05-02T02:30:24;20.90;41.50
32753;DHT22;19121;52.428;10.816;2023-05-02T02:32:50;20.90;41.50
32753;DHT22;19121;52.428;10.816;2023-05-02T02:35:15;20.90;41.60
32753;DHT22;19121;52.428;10.816;2023-05-02T02:40:46;20.90;41.50
32753;DHT22;19121;52.428;10.816;2023-05-02T02:43:18;20.90;41.50
32753;DHT22;19121;52.428;10.816;2023-05-02T02:53:24;20.90;41.50
32753;DHT22;19121;52.428;10.816;2023-05-02T02:55:58;20.90;41.50
32753;DHT22;19121;52.428;10.816;2023-05-02T03:00:59;20.90;41.50
32753;DHT22;19121;52.428;10.816;2023-05-02T03:03:27;20.90;41.50
32753;DHT22;19121;52.428;10.816;2023-05-02T03:05:54;20.90;41.50
32753;DHT22;19121;52.428;10.816;2023-05-02T03:08:20;20.90;41.50
32753;DHT22;19121;52.428;10.816;2023-05-02T03:10:46;20.90;41.50
32753;DHT22;19121;52.428;10.816;2023-05-02T03:13:11;20.90;41.50
32753;DHT22;19121;52.428;10.816;2023-05-02T03:18:22;20.90;41.50
32753;DHT22;19121;52.428;10.816;2023-05-02T03:20:48;20.90;41.50
32753;DHT22;19121;52.428;10.816;2023-05-02T03:23:13;20.90;41.50
32753;DHT22;19121;52.428;10.816;2023-05-02T03:25:39;20.90;41.50
32753;DHT22;19121;52.428;10.816;2023-05-02T03:28:04;20.90;41.50
32753;DHT22;19121;52.428;10.816;2023-05-02T03:30:29;20.90;41.40
32753;DHT22;19121;52.428;10.816;2023-05-02T03:32:55;20.90;41.40
32753;DHT22;19121;52.428;10.816;2023-05-02T03:35:21;20.90;41.50
32753;DHT22;19121;52.428;10.816;2023-05-02T03:37:46;20.90;41.50
32753;DHT22;19121;52.428;10.816;2023-05-02T03:40:12;20.90;41.50
32753;DHT22;19121;52.428;10.816;2023-05-02T03:42:37;20.90;41.50
32753;DHT22;19121;52.428;10.816;2023-05-02T03:45:06;20.90;41.50
32753;DHT22;19121;52.428;10.816;2023-05-02T03:47:31;20.90;41.50
32753;DHT22;19121;52.428;10.816;2023-05-02T03:49:57;20.90;41.50
32753;DHT22;19121;52.428;10.816;2023-05-02T03:52:23;20.80;41.50
32753;DHT22;19121;52.428;10.816;2023-05-02T03:54:49;20.80;41.50
32753;DHT22;19121;52.428;10.816;2023-05-02T03:57:15;20.80;41.50
32753;DHT22;19121;52.428;10.816;2023-05-02T03:59:40;20.80;41.50
32753;DHT22;19121;52.428;10.816;2023-05-02T04:02:07;20.80;41.50
32753;DHT22;19121;52.428;10.816;2023-05-02T04:04:33;20.80;41.60
32753;DHT22;19121;52.428;10.816;2023-05-02T04:06:58;20.80;41.60
32753;DHT22;19121;52.428;10.816;2023-05-02T04:09:24;20.80;41.50
32753;DHT22;19121;52.428;10.816;2023-05-02T04:11:50;20.80;42.10
32753;DHT22;19121;52.428;10.816;2023-05-02T04:14:15;20.80;41.50
32753;DHT22;19121;52.428;10.816;2023-05-02T04:16:40;20.80;41.50
32753;DHT22;19121;52.428;10.816;2023-05-02T04:19:06;20.80;41.50
32753;DHT22;19121;52.428;10.816;2023-05-02T04:21:31;20.80;41.60
32753;DHT22;19121;52.428;10.816;2023-05-02T04:23:57;20.80;41.60
32753;DHT22;19121;52.428;10.816;2023-05-02T04:26:23;20.80;41.60
32753;DHT22;19121;52.428;10.816;2023-05-02T04:28:48;20.80;41.60
32753;DHT22;19121;52.428;10.816;2023-05-02T04:31:13;20.80;41.60
32753;DHT22;19121;52.428;10.816;2023-05-02T04:33:39;20.80;41.60
32753;DHT22;19121;52.428;10.816;2023-05-02T04:36:04;20.80;41.60
32753;DHT22;19121;52.428;10.816;2023-05-02T04:38:30;20.80;41.60
32753;DHT22;19121;52.428;10.816;2023-05-02T04:40:55;20.80;41.60
32753;DHT22;19121;52.428;10.816;2023-05-02T04:43:21;20.80;41.60
32753;DHT22;19121;52.428;10.816;2023-05-02T04:45:46;20.80;41.60
32753;DHT22;19121;52.428;10.816;2023-05-02T04:48:12;20.80;41.60
32753;DHT22;19121;52.428;10.816;2023-05-02T04:50:37;20.80;41.60
32753;DHT22;19121;52.428;10.816;2023-05-02T04:53:03;20.80;41.60
32753;DHT22;19121;52.428;10.816;2023-05-02T04:55:28;20.80;41.60
32753;DHT22;19121;52.428;10.816;2023-05-02T04:57:54;20.80;41.60
32753;DHT22;19121;52.428;10.816;2023-05-02T05:00:19;20.80;41.60
32753;DHT22;19121;52.428;10.816;2023-05-02T05:02:46;20.80;41.60
32753;DHT22;19121;52.428;10.816;2023-05-02T05:05:11;20.80;41.60
32753;DHT22;19121;52.428;10.816;2023-05-02T05:07:37;20.80;41.60
32753;DHT22;19121;52.428;10.816;2023-05-02T05:10:02;20.80;41.60
32753;DHT22;19121;52.428;10.816;2023-05-02T05:12:28;20.80;41.60
32753;DHT22;19121;52.428;10.816;2023-05-02T05:14:53;20.80;41.70
32753;DHT22;19121;52.428;10.816;2023-05-02T05:17:18;20.80;41.70
32753;DHT22;19121;52.428;10.816;2023-05-02T05:19:44;20.80;41.70
32753;DHT22;19121;52.428;10.816;2023-05-02T05:22:09;20.80;41.70
32753;DHT22;19121;52.428;10.816;2023-05-02T05:24:35;20.80;41.70
32753;DHT22;19121;52.428;10.816;2023-05-02T05:27:00;20.80;41.70
32753;DHT22;19121;52.428;10.816;2023-05-02T05:29:26;20.70;41.60
32753;DHT22;19121;52.428;10.816;2023-05-02T05:31:52;20.80;41.70
32753;DHT22;19121;52.428;10.816;2023-05-02T05:34:17;20.80;41.70
32753;DHT22;19121;52.428;10.816;2023-05-02T05:36:43;20.80;41.70
32753;DHT22;19121;52.428;10.816;2023-05-02T05:39:08;20.80;41.70
32753;DHT22;19121;52.428;10.816;2023-05-02T05:41:34;20.80;41.70
32753;DHT22;19121;52.428;10.816;2023-05-02T05:44:00;20.80;41.80
32753;DHT22;19121;52.428;10.816;2023-05-02T05:46:25;20.70;41.70
32753;DHT22;19121;52.428;10.816;2023-05-02T05:48:51;20.80;42.00
32753;DHT22;19121;52.428;10.816;2023-05-02T05:51:16;20.70;42.00
32753;DHT22;19121;52.428;10.816;2023-05-02T05:53:42;20.70;42.20
32753;DHT22;19121;52.428;10.816;2023-05-02T05:56:11;20.70;42.30
32753;DHT22;19121;52.428;10.816;2023-05-02T05:58:36;20.70;42.40
32753;DHT22;19121;52.428;10.816;2023-05-02T06:01:02;20.70;42.40
32753;DHT22;19121;52.428;10.816;2023-05-02T06:03:27;20.70;42.40
32753;DHT22;19121;52.428;10.816;2023-05-02T06:05:53;20.80;42.50
32753;DHT22;19121;52.428;10.816;2023-05-02T06:08:18;20.80;42.60
32753;DHT22;19121;52.428;10.816;2023-05-02T06:10:45;20.80;42.90
32753;DHT22;19121;52.428;10.816;2023-05-02T06:13:11;20.80;43.00
32753;DHT22;19121;52.428;10.816;2023-05-02T06:15:36;20.80;43.00
32753;DHT22;19121;52.428;10.816;2023-05-02T06:18:02;20.80;43.00
32753;DHT22;19121;52.428;10.816;2023-05-02T06:20:27;20.80;43.20
32753;DHT22;19121;52.428;10.816;2023-05-02T06:22:53;20.80;44.20
32753;DHT22;19121;52.428;10.816;2023-05-02T06:25:18;20.80;43.30
32753;DHT22;19121;52.428;10.816;2023-05-02T06:27:43;20.80;43.30
32753;DHT22;19121;52.428;10.816;2023-05-02T06:30:09;20.80;43.20
32753;DHT22;19121;52.428;10.816;2023-05-02T06:32:34;20.80;43.00
32753;DHT22;19121;52.428;10.816;2023-05-02T06:35:00;20.80;42.90
32753;DHT22;19121;52.428;10.816;2023-05-02T06:37:25;20.80;43.70
32753;DHT22;19121;52.428;10.816;2023-05-02T06:39:51;20.80;44.20
32753;DHT22;19121;52.428;10.816;2023-05-02T06:42:16;20.80;44.20
32753;DHT22;19121;52.428;10.816;2023-05-02T06:44:41;20.80;45.30
32753;DHT22;19121;52.428;10.816;2023-05-02T06:47:07;20.80;45.50
32753;DHT22;19121;52.428;10.816;2023-05-02T06:49:32;20.80;45.40
32753;DHT22;19121;52.428;10.816;2023-05-02T06:51:58;20.80;45.40
32753;DHT22;19121;52.428;10.816;2023-05-02T06:54:23;20.90;45.00
32753;DHT22;19121;52.428;10.816;2023-05-02T06:56:49;20.90;44.90
32753;DHT22;19121;52.428;10.816;2023-05-02T06:59:14;20.90;44.90
32753;DHT22;19121;52.428;10.816;2023-05-02T07:01:42;20.90;45.00
32753;DHT22;19121;52.428;10.816;2023-05-02T07:04:07;20.90;44.80
32753;DHT22;19121;52.428;10.816;2023-05-02T07:06:33;20.90;44.50
32753;DHT22;19121;52.428;10.816;2023-05-02T07:08:58;20.90;45.00
32753;DHT22;19121;52.428;10.816;2023-05-02T07:11:23;20.90;44.90
32753;DHT22;19121;52.428;10.816;2023-05-02T07:13:49;21.00;45.10
32753;DHT22;19121;52.428;10.816;2023-05-02T07:16:14;21.00;44.90
32753;DHT22;19121;52.428;10.816;2023-05-02T07:18:40;21.00;44.80
32753;DHT22;19121;52.428;10.816;2023-05-02T07:21:06;20.90;44.20
32753;DHT22;19121;52.428;10.816;2023-05-02T07:23:32;21.00;44.30
32753;DHT22;19121;52.428;10.816;2023-05-02T07:25:58;21.00;44.30
32753;DHT22;19121;52.428;10.816;2023-05-02T07:28:23;21.00;44.20
32753;DHT22;19121;52.428;10.816;2023-05-02T07:30:49;21.00;44.00
32753;DHT22;19121;52.428;10.816;2023-05-02T07:33:14;21.00;44.00
32753;DHT22;19121;52.428;10.816;2023-05-02T07:35:40;21.00;44.50
32753;DHT22;19121;52.428;10.816;2023-05-02T07:38:06;21.00;44.60
32753;DHT22;19121;52.428;10.816;2023-05-02T07:40:31;21.00;44.60
32753;DHT22;19121;52.428;10.816;2023-05-02T07:42:57;21.00;44.60
32753;DHT22;19121;52.428;10.816;2023-05-02T07:45:25;21.00;44.50
32753;DHT22;19121;52.428;10.816;2023-05-02T07:47:50;21.10;44.50
32753;DHT22;19121;52.428;10.816;2023-05-02T07:50:16;21.00;44.40
32753;DHT22;19121;52.428;10.816;2023-05-02T07:52:41;21.10;44.30
32753;DHT22;19121;52.428;10.816;2023-05-02T07:55:07;21.10;44.50
32753;DHT22;19121;52.428;10.816;2023-05-02T07:57:32;21.10;44.30
32753;DHT22;19121;52.428;10.816;2023-05-02T07:59:58;21.10;44.40
32753;DHT22;19121;52.428;10.816;2023-05-02T08:02:24;21.10;44.30
32753;DHT22;19121;52.428;10.816;2023-05-02T08:04:50;21.20;44.40
32753;DHT22;19121;52.428;10.816;2023-05-02T08:07:15;21.20;44.20
32753;DHT22;19121;52.428;10.816;2023-05-02T08:09:41;21.20;44.10
32753;DHT22;19121;52.428;10.816;2023-05-02T08:12:06;21.20;44.20
32753;DHT22;19121;52.428;10.816;2023-05-02T08:14:32;21.20;44.30
32753;DHT22;19121;52.428;10.816;2023-05-02T08:16:58;21.30;44.20
32753;DHT22;19121;52.428;10.816;2023-05-02T08:19:23;21.30;44.10
32753;DHT22;19121;52.428;10.816;2023-05-02T08:21:49;21.30;44.10
32753;DHT22;19121;52.428;10.816;2023-05-02T08:24:14;21.30;44.20
32753;DHT22;19121;52.428;10.816;2023-05-02T08:26:40;21.30;44.10
32753;DHT22;19121;52.428;10.816;2023-05-02T08:29:05;21.30;44.00
32753;DHT22;19121;52.428;10.816;2023-05-02T08:31:30;21.40;43.80
32753;DHT22;19121;52.428;10.816;2023-05-02T08:33:56;21.40;43.80
32753;DHT22;19121;52.428;10.816;2023-05-02T08:36:23;21.40;43.70
32753;DHT22;19121;52.428;10.816;2023-05-02T08:38:49;21.40;43.70
32753;DHT22;19121;52.428;10.816;2023-05-02T08:41:16;21.40;43.70
32753;DHT22;19121;52.428;10.816;2023-05-02T08:43:42;21.50;43.80
32753;DHT22;19121;52.428;10.816;2023-05-02T08:46:08;21.50;43.90
32753;DHT22;19121;52.428;10.816;2023-05-02T08:48:34;21.50;43.90
32753;DHT22;19121;52.428;10.816;2023-05-02T08:51:00;21.60;43.70
32753;DHT22;19121;52.428;10.816;2023-05-02T08:53:26;21.60;43.90
32753;DHT22;19121;52.428;10.816;2023-05-02T08:55:52;21.60;44.50
32753;DHT22;19121;52.428;10.816;2023-05-02T08:58:18;21.60;43.80
32753;DHT22;19121;52.428;10.816;2023-05-02T09:00:43;21.60;43.80
32753;DHT22;19121;52.428;10.816;2023-05-02T09:06:07;21.60;43.80
32753;DHT22;19121;52.428;10.816;2023-05-02T09:08:34;21.60;43.30
32753;DHT22;19121;52.428;10.816;2023-05-02T09:11:03;21.60;43.10
32753;DHT22;19121;52.428;10.816;2023-05-02T09:13:29;21.60;43.30
32753;DHT22;19121;52.428;10.816;2023-05-02T09:15:58;21.60;43.40
32753;DHT22;19121;52.428;10.816;2023-05-02T09:18:26;21.70;43.50
32753;DHT22;19121;52.428;10.816;2023-05-02T09:20:52;21.70;43.40
32753;DHT22;19121;52.428;10.816;2023-05-02T09:23:17;21.70;43.50
32753;DHT22;19121;52.428;10.816;2023-05-02T09:25:43;21.70;43.40
32753;DHT22;19121;52.428;10.816;2023-05-02T09:28:08;21.70;43.40
32753;DHT22;19121;52.428;10.816;2023-05-02T09:30:34;21.70;43.30
32753;DHT22;19121;52.428;10.816;2023-05-02T09:32:59;21.70;43.60
32753;DHT22;19121;52.428;10.816;2023-05-02T09:35:25;21.70;43.90
32753;DHT22;19121;52.428;10.816;2023-05-02T09:37:56;21.70;44.00
32753;DHT22;19121;52.428;10.816;2023-05-02T09:40:25;21.70;44.00
32753;DHT22;19121;52.428;10.816;2023-05-02T09:42:52;21.60;44.10
32753;DHT22;19121;52.428;10.816;2023-05-02T09:45:20;21.60;44.20
32753;DHT22;19121;52.428;10.816;2023-05-02T09:47:46;21.60;44.00
32753;DHT22;19121;52.428;10.816;2023-05-02T09:50:31;21.60;43.50
32753;DHT22;19121;52.428;10.816;2023-05-02T09:53:04;21.60;43.50
32753;DHT22;19121;52.428;10.816;2023-05-02T09:55:30;21.70;43.80
32753;DHT22;19121;52.428;10.816;2023-05-02T09:57:56;21.70;43.80
32753;DHT22;19121;52.428;10.816;2023-05-02T10:00:21;21.80;43.60
32753;DHT22;19121;52.428;10.816;2023-05-02T10:02:48;21.80;43.70
32753;DHT22;19121;52.428;10.816;2023-05-02T10:05:15;21.80;43.50
32753;DHT22;19121;52.428;10.816;2023-05-02T10:07:42;21.80;43.60
32753;DHT22;19121;52.428;10.816;2023-05-02T10:10:10;21.80;43.60
32753;DHT22;19121;52.428;10.816;2023-05-02T10:12:38;21.90;43.40
32753;DHT22;19121;52.428;10.816;2023-05-02T10:15:04;21.90;43.40
32753;DHT22;19121;52.428;10.816;2023-05-02T10:17:34;21.90;43.30
32753;DHT22;19121;52.428;10.816;2023-05-02T10:20:05;21.90;43.40
32753;DHT22;19121;52.428;10.816;2023-05-02T10:22:34;21.90;43.40
32753;DHT22;19121;52.428;10.816;2023-05-02T10:25:01;22.00;43.40
32753;DHT22;19121;52.428;10.816;2023-05-02T10:27:28;22.00;43.50
32753;DHT22;19121;52.428;10.816;2023-05-02T10:29:53;22.00;43.50
32753;DHT22;19121;52.428;10.816;2023-05-02T10:32:21;22.00;43.40
32753;DHT22;19121;52.428;10.816;2023-05-02T10:34:47;22.10;43.30
32753;DHT22;19121;52.428;10.816;2023-05-02T10:37:14;22.10;43.30
32753;DHT22;19121;52.428;10.816;2023-05-02T10:39:40;22.10;43.30
32753;DHT22;19121;52.428;10.816;2023-05-02T10:42:05;22.10;43.30
32753;DHT22;19121;52.428;10.816;2023-05-02T10:44:35;22.10;43.30
32753;DHT22;19121;52.428;10.816;2023-05-02T10:47:16;22.10;43.30
32753;DHT22;19121;52.428;10.816;2023-05-02T10:49:54;22.10;43.00
32753;DHT22;19121;52.428;10.816;2023-05-02T10:52:24;22.20;42.60
32753;DHT22;19121;52.428;10.816;2023-05-02T10:54:51;22.20;42.50
32753;DHT22;19121;52.428;10.816;2023-05-02T10:57:16;22.20;42.90
32753;DHT22;19121;52.428;10.816;2023-05-02T10:59:42;22.20;43.10
32753;DHT22;19121;52.428;10.816;2023-05-02T11:05:01;22.20;42.70
32753;DHT22;19121;52.428;10.816;2023-05-02T11:07:27;22.20;42.70
32753;DHT22;19121;52.428;10.816;2023-05-02T11:09:52;22.20;42.70
32753;DHT22;19121;52.428;10.816;2023-05-02T11:15:02;22.20;42.80
32753;DHT22;19121;52.428;10.816;2023-05-02T11:17:31;22.20;42.70
32753;DHT22;19121;52.428;10.816;2023-05-02T11:22:39;22.30;42.80
32753;DHT22;19121;52.428;10.816;2023-05-02T11:25:06;22.30;43.10
32753;DHT22;19121;52.428;10.816;2023-05-02T11:27:51;22.30;42.80
32753;DHT22;19121;52.428;10.816;2023-05-02T11:30:17;22.30;43.00
32753;DHT22;19121;52.428;10.816;2023-05-02T11:33:10;22.40;43.30
32753;DHT22;19121;52.428;10.816;2023-05-02T11:35:36;22.40;43.40
32753;DHT22;19121;52.428;10.816;2023-05-02T11:38:08;22.40;43.20
32753;DHT22;19121;52.428;10.816;2023-05-02T11:40:34;22.40;43.00
32753;DHT22;19121;52.428;10.816;2023-05-02T11:42:59;22.40;43.10
32753;DHT22;19121;52.428;10.816;2023-05-02T11:45:32;22.40;43.10
32753;DHT22;19121;52.428;10.816;2023-05-02T11:47:58;22.50;43.20
32753;DHT22;19121;52.428;10.816;2023-05-02T11:50:23;22.50;43.00
32753;DHT22;19121;52.428;10.816;2023-05-02T11:52:50;22.50;43.20
32753;DHT22;19121;52.428;10.816;2023-05-02T11:55:15;22.50;43.20
32753;DHT22;19121;52.428;10.816;2023-05-02T11:57:41;22.50;43.20
32753;DHT22;19121;52.428;10.816;2023-05-02T12:00:07;22.50;42.90
32753;DHT22;19121;52.428;10.816;2023-05-02T12:05:04;22.50;42.80
32753;DHT22;19121;52.428;10.816;2023-05-02T12:07:37;22.50;42.70
32753;DHT22;19121;52.428;10.816;2023-05-02T12:10:02;22.50;42.60
32753;DHT22;19121;52.428;10.816;2023-05-02T12:12:28;22.50;42.80
32753;DHT22;19121;52.428;10.816;2023-05-02T12:14:54;22.60;42.80
32753;DHT22;19121;52.428;10.816;2023-05-02T12:17:20;22.60;42.70
32753;DHT22;19121;52.428;10.816;2023-05-02T12:19:46;22.60;42.60
32753;DHT22;19121;52.428;10.816;2023-05-02T12:22:13;22.60;42.60
32753;DHT22;19121;52.428;10.816;2023-05-02T12:24:38;22.50;42.20
32753;DHT22;19121;52.428;10.816;2023-05-02T12:27:08;22.50;42.00
32753;DHT22;19121;52.428;10.816;2023-05-02T12:29:44;22.50;42.00
32753;DHT22;19121;52.428;10.816;2023-05-02T12:32:10;22.50;41.90
32753;DHT22;19121;52.428;10.816;2023-05-02T12:34:36;22.50;41.90
32753;DHT22;19121;52.428;10.816;2023-05-02T12:37:02;22.50;41.90
32753;DHT22;19121;52.428;10.816;2023-05-02T12:39:41;22.50;41.90
32753;DHT22;19121;52.428;10.816;2023-05-02T12:42:10;22.50;41.80
32753;DHT22;19121;52.428;10.816;2023-05-02T12:44:36;22.50;41.80
32753;DHT22;19121;52.428;10.816;2023-05-02T12:47:03;22.50;42.00
32753;DHT22;19121;52.428;10.816;2023-05-02T12:49:28;22.50;42.00
32753;DHT22;19121;52.428;10.816;2023-05-02T12:51:53;22.50;41.90
32753;DHT22;19121;52.428;10.816;2023-05-02T12:54:22;22.50;41.70
32753;DHT22;19121;52.428;10.816;2023-05-02T12:56:47;22.50;41.80
32753;DHT22;19121;52.428;10.816;2023-05-02T12:59:28;22.40;41.60
32753;DHT22;19121;52.428;10.816;2023-05-02T13:01:54;22.50;41.50
32753;DHT22;19121;52.428;10.816;2023-05-02T13:04:19;22.50;41.40
32753;DHT22;19121;52.428;10.816;2023-05-02T13:06:44;22.40;41.30
32753;DHT22;19121;52.428;10.816;2023-05-02T13:09:10;22.40;41.20
32753;DHT22;19121;52.428;10.816;2023-05-02T13:11:35;22.50;41.30
32753;DHT22;19121;52.428;10.816;2023-05-02T13:14:01;22.40;41.30
32753;DHT22;19121;52.428;10.816;2023-05-02T13:16:29;22.40;41.30
32753;DHT22;19121;52.428;10.816;2023-05-02T13:18:55;22.40;41.20
32753;DHT22;19121;52.428;10.816;2023-05-02T13:21:21;22.40;41.20
32753;DHT22;19121;52.428;10.816;2023-05-02T13:23:47;22.40;41.20
32753;DHT22;19121;52.428;10.816;2023-05-02T13:26:14;22.40;41.30
32753;DHT22;19121;52.428;10.816;2023-05-02T13:28:40;22.40;41.30
32753;DHT22;19121;52.428;10.816;2023-05-02T13:31:06;22.40;41.30
32753;DHT22;19121;52.428;10.816;2023-05-02T13:33:31;22.40;41.20
32753;DHT22;19121;52.428;10.816;2023-05-02T13:35:57;22.40;41.20
32753;DHT22;19121;52.428;10.816;2023-05-02T13:38:22;22.40;41.20
32753;DHT22;19121;52.428;10.816;2023-05-02T13:40:48;22.40;41.20
32753;DHT22;19121;52.428;10.816;2023-05-02T13:43:14;22.40;41.10
32753;DHT22;19121;52.428;10.816;2023-05-02T13:45:39;22.40;41.10
32753;DHT22;19121;52.428;10.816;2023-05-02T13:48:05;22.40;41.00
32753;DHT22;19121;52.428;10.816;2023-05-02T13:50:30;22.40;41.00
32753;DHT22;19121;52.428;10.816;2023-05-02T13:52:55;22.40;41.00
32753;DHT22;19121;52.428;10.816;2023-05-02T13:55:21;22.30;40.80
32753;DHT22;19121;52.428;10.816;2023-05-02T13:57:46;22.30;40.90
32753;DHT22;19121;52.428;10.816;2023-05-02T14:00:12;22.30;40.80
32753;DHT22;19121;52.428;10.816;2023-05-02T14:02:38;22.30;40.70
32753;DHT22;19121;52.428;10.816;2023-05-02T14:05:03;22.30;40.60
32753;DHT22;19121;52.428;10.816;2023-05-02T14:07:29;22.30;40.60
32753;DHT22;19121;52.428;10.816;2023-05-02T14:09:54;22.30;40.50
32753;DHT22;19121;52.428;10.816;2023-05-02T14:12:20;22.30;40.40
32753;DHT22;19121;52.428;10.816;2023-05-02T14:14:45;22.30;40.40
32753;DHT22;19121;52.428;10.816;2023-05-02T14:17:11;22.30;40.30
32753;DHT22;19121;52.428;10.816;2023-05-02T14:19:36;22.30;40.20
32753;DHT22;19121;52.428;10.816;2023-05-02T14:22:02;22.20;40.20
32753;DHT22;19121;52.428;10.816;2023-05-02T14:24:27;22.30;40.20
32753;DHT22;19121;52.428;10.816;2023-05-02T14:26:52;22.20;40.10
32753;DHT22;19121;52.428;10.816;2023-05-02T14:29:18;22.30;40.10
32753;DHT22;19121;52.428;10.816;2023-05-02T14:31:44;22.20;40.70
32753;DHT22;19121;52.428;10.816;2023-05-02T14:34:10;22.20;40.00
32753;DHT22;19121;52.428;10.816;2023-05-02T14:36:35;22.20;40.00
32753;DHT22;19121;52.428;10.816;2023-05-02T14:39:01;22.20;40.00
32753;DHT22;19121;52.428;10.816;2023-05-02T14:41:26;22.20;39.90
32753;DHT22;19121;52.428;10.816;2023-05-02T14:43:52;22.20;39.90
32753;DHT22;19121;52.428;10.816;2023-05-02T14:46:17;22.20;39.80
32753;DHT22;19121;52.428;10.816;2023-05-02T14:48:43;22.20;39.80
32753;DHT22;19121;52.428;10.816;2023-05-02T14:51:09;22.20;39.70
32753;DHT22;19121;52.428;10.816;2023-05-02T14:53:34;22.20;39.70
32753;DHT22;19121;52.428;10.816;2023-05-02T14:56:00;22.20;39.60
32753;DHT22;19121;52.428;10.816;2023-05-02T14:58:25;22.20;39.50
32753;DHT22;19121;52.428;10.816;2023-05-02T15:00:51;22.20;39.50
32753;DHT22;19121;52.428;10.816;2023-05-02T15:03:16;22.20;39.40
32753;DHT22;19121;52.428;10.816;2023-05-02T15:05:42;22.10;39.30
32753;DHT22;19121;52.428;10.816;2023-05-02T15:08:07;22.10;39.20
32753;DHT22;19121;52.428;10.816;2023-05-02T15:10:36;22.20;39.30
32753;DHT22;19121;52.428;10.816;2023-05-02T15:13:02;22.10;39.20
32753;DHT22;19121;52.428;10.816;2023-05-02T15:15:28;22.10;39.10
32753;DHT22;19121;52.428;10.816;2023-05-02T15:17:54;22.10;39.10
32753;DHT22;19121;52.428;10.816;2023-05-02T15:20:19;22.10;39.10
32753;DHT22;19121;52.428;10.816;2023-05-02T15:22:45;22.10;39.20
32753;DHT22;19121;52.428;10.816;2023-05-02T15:25:10;22.10;39.10
32753;DHT22;19121;52.428;10.816;2023-05-02T15:27:36;22.10;39.20
32753;DHT22;19121;52.428;10.816;2023-05-02T15:30:01;22.10;39.20
32753;DHT22;19121;52.428;10.816;2023-05-02T15:32:27;22.10;39.20
32753;DHT22;19121;52.428;10.816;2023-05-02T15:34:53;22.00;39.20
32753;DHT22;19121;52.428;10.816;2023-05-02T15:37:18;22.10;39.20
32753;DHT22;19121;52.428;10.816;2023-05-02T15:39:44;22.00;39.20
32753;DHT22;19121;52.428;10.816;2023-05-02T15:42:09;22.00;39.30
32753;DHT22;19121;52.428;10.816;2023-05-02T15:44:35;22.00;39.30
32753;DHT22;19121;52.428;10.816;2023-05-02T15:47:01;22.10;39.30